Time;durP1;ratioP1;P1;durP2;ratioP2;P2;SDS_P1;SDS_P2;PMS_P1;PMS_P2;Temp;Humidity;BMP_temperature;BMP_pressure;BME280_temperature;BME280_humidity;BME280_pressure;Samples;Min_cycle;Max_cycle;Signal;HPM_P1;HPM_P2
2022/02/04 00:23:19;;;;;;;;;;;;;;;;;;;;;
2022/02/04 00:26:09;;;;;;;5.30;3.60;;;;;;;20.27;31.39;101493.63;102941;1324;61592;-88
2022/02/04 00:29:19;;;;;;;6.30;3.90;;;;;;;20.27;31.33;101498.44;103199;1322;72891;-87
2022/02/04 00:32:06;;;;;;;;;;;;;;;;;;;;;
2022/02/04 00:35:03;;;;;;;5.70;4.00;;;;;;;20.27;31.43;101487.88;102944;1325;61350;-83
2022/02/04 00:37:45;;;;;;;5.00;3.70;;;;;;;20.28;31.35;101490.18;103369;1319;60429;-86
2022/02/04 00:40:27;;;;;;;6.60;4.30;;;;;;;20.28;31.38;101492.88;103278;1319;72990;-82
2022/02/04 00:43:23;;;;;;;6.50;4.50;;;;;;;20.28;31.35;101493.23;103366;1319;74863;-86
2022/02/04 00:46:15;;;;;;;5.60;4.30;;;;;;;20.27;31.39;101488.40;103987;1313;61323;-83
2022/02/04 00:49:31;;;;;;;;;;;;;;;;;;;;;
2022/02/04 00:52:08;;;;;;;7.30;4.50;;;;;;;20.26;31.40;101481.48;104210;1313;72906;-85
2022/02/04 00:55:09;;;;;;;;;;;;;;;;;;;;;
2022/02/04 01:26:32;;;;;;;5.90;4.30;;;;;;;20.25;31.32;101494.75;104256;1313;61418;-87
2022/02/04 01:29:50;;;;;;;6.90;5.10;;;;;;;20.26;31.21;101494.19;104151;1313;73103;-83
2022/02/04 01:32:25;;;;;;;6.80;4.60;;;;;;;20.26;31.19;101497.40;104089;1313;74758;-81
2022/02/04 01:35:37;;;;;;;7.20;4.40;;;;;;;20.26;31.23;101489.00;104202;1313;61298;-83
2022/02/04 01:38:24;;;;;;;7.70;4.50;;;;;;;20.27;31.31;101489.34;104253;1313;61050;-87
2022/02/04 01:41:16;;;;;;;6.40;4.70;;;;;;;20.26;31.15;101486.68;104203;1313;73941;-85
2022/02/04 01:44:08;;;;;;;6.70;4.60;;;;;;;20.27;31.22;101482.91;103883;1313;73676;-83
2022/02/04 01:46:44;;;;;;;6.60;5.00;;;;;;;20.26;31.23;101480.24;104178;1313;62029;-82
2022/02/04 01:49:30;;;;;;;9.10;5.00;;;;;;;20.26;31.19;101481.13;104205;1313;61626;-86
2022/02/04 01:52:38;;;;;;;7.50;5.20;;;;;;;20.26;31.21;101481.13;104140;1313;72656;-88
2022/02/04 01:55:35;;;;;;;6.60;5.00;;;;;;;20.27;31.19;101483.45;104533;1307;75722;-85
2022/02/04 01:58:31;;;;;;;8.80;5.00;;;;;;;20.26;31.17;101484.90;104730;1306;61547;-84
2022/02/04 02:01:29;;;;;;;8.00;4.80;;;;;;;20.26;31.14;101490.27;104706;1306;61587;-85
2022/02/04 02:04:16;;;;;;;;;;;;;;;;;;;;;
2022/02/04 02:07:18;;;;;;;7.20;4.80;;;;;;;20.26;31.33;101492.40;104696;1305;75716;-88
2022/02/04 02:10:12;;;;;;;8.80;5.00;;;;;;;20.26;31.24;101490.62;104706;1306;61255;-85
2022/02/04 02:13:17;;;;;;;7.10;5.20;;;;;;;20.26;31.22;101494.02;104180;1313;61833;-85
2022/02/04 02:16:56;;;;;;;8.40;5.00;;;;;;;20.26;31.11;101495.80;104236;1313;73947;-84
2022/02/04 02:44:49;;;;;;;8.20;4.90;;;;;;;20.24;31.11;101499.66;103366;1319;75850;-82
2022/02/04 02:48:54;;;;;;;;;;;;;;;;;;;;;
2022/02/04 03:01:00;;;;;;;8.20;5.30;;;;;;;20.24;31.13;101498.20;103945;1316;61277;-83
2022/02/04 03:03:48;;;;;;;8.20;5.20;;;;;;;20.24;31.03;101495.73;104123;1316;61198;-86
2022/02/04 03:06:47;;;;;;;8.50;4.90;;;;;;;20.24;31.12;101495.70;104112;1313;72904;-84
2022/02/04 03:09:39;;;;;;;8.20;5.10;;;;;;;20.24;31.06;101490.71;104182;1313;74796;-87
2022/02/04 03:12:46;;;;;;;6.90;4.60;;;;;;;20.25;31.19;101490.52;104209;1313;61327;-84
2022/02/04 03:15:17;;;;;;;7.80;5.00;;;;;;;20.25;31.09;101491.39;104227;1314;61317;-84
2022/02/04 03:18:19;;;;;;;8.00;5.70;;;;;;;20.25;31.06;101492.99;104158;1313;61458;-84
2022/02/04 03:21:38;;;;;;;8.80;5.60;;;;;;;20.25;31.25;101491.03;104258;1313;75184;-82
2022/02/04 03:24:27;;;;;;;8.40;5.30;;;;;;;20.25;31.02;101484.80;104205;1313;61291;-86
2022/02/04 03:27:17;;;;;;;8.40;5.30;;;;;;;20.25;31.18;101481.58;104237;1313;61437;-85
2022/02/04 03:30:07;;;;;;;7.90;5.40;;;;;;;20.25;31.00;101481.02;104243;1313;72347;-82
2022/02/04 03:33:07;;;;;;;8.50;5.50;;;;;;;20.25;31.03;101477.24;104198;1313;74878;-87
2022/02/04 03:36:10;;;;;;;11.60;5.50;;;;;;;20.25;31.02;101472.10;104194;1316;61881;-86
2022/02/04 03:38:43;;;;;;;8.60;5.20;;;;;;;20.24;31.10;101472.48;104197;1313;61509;-84
2022/02/04 03:42:01;;;;;;;8.80;5.20;;;;;;;20.25;31.05;101471.90;104513;1306;72778;-90
2022/02/04 03:44:49;;;;;;;9.40;5.70;;;;;;;20.25;30.98;101470.13;104274;1313;76007;-89
2022/02/04 03:47:28;;;;;;;9.30;5.70;;;;;;;20.25;31.08;101470.30;103853;1317;61444;-88
2022/02/04 03:50:17;;;;;;;9.70;5.50;;;;;;;20.25;31.08;101474.39;103182;1319;61316;-87
2022/02/04 03:52:53;;;;;;;9.30;5.70;;;;;;;20.25;31.16;101479.23;103880;1317;75167;-88
2022/02/04 03:55:32;;;;;;;9.40;6.00;;;;;;;20.25;31.06;101476.01;103837;1317;74758;-85
2022/02/04 03:58:44;;;;;;;10.10;6.00;;;;;;;20.25;31.08;101478.70;103520;1317;61708;-82
2022/02/04 04:01:53;;;;;;;7.70;5.00;;;;;;;20.25;31.13;101477.29;102959;1324;61659;-87
2022/02/04 04:04:25;;;;;;;9.20;5.70;;;;;;;20.24;31.04;101477.48;102840;1325;73256;-82
2022/02/04 04:07:41;;;;;;;8.00;5.30;;;;;;;20.24;31.05;101476.95;102761;1325;75300;-82
2022/02/04 04:10:40;;;;;;;10.60;5.80;;;;;;;20.24;31.00;101479.98;102584;1332;61195;-83
2022/02/04 04:13:52;;;;;;;8.60;5.40;;;;;;;20.24;31.06;101479.81;102539;1332;61204;-83
2022/02/04 04:16:50;;;;;;;9.20;5.90;;;;;;;20.24;30.99;101476.77;101884;1340;73880;-87
2022/02/04 04:19:36;;;;;;;10.00;6.00;;;;;;;20.24;30.93;101473.55;101917;1341;76172;-82
2022/02/04 04:23:02;;;;;;;;;;;;;;;;;;;;;
2022/02/04 04:26:01;;;;;;;10.30;5.90;;;;;;;20.24;30.95;101469.96;102211;1334;61180;-85
2022/02/04 04:28:46;;;;;;;9.00;6.10;;;;;;;20.25;30.97;101471.21;102192;1334;72979;-84
2022/02/04 04:31:13;;;;;;;10.30;6.10;;;;;;;20.25;30.96;101473.17;102286;1334;74787;-84
2022/02/04 04:33:57;;;;;;;11.30;6.10;;;;;;;20.25;30.95;101476.20;102203;1334;62139;-89
2022/02/04 04:36:52;;;;;;;10.30;6.50;;;;;;;20.25;30.88;101475.85;102148;1334;61442;-84
2022/02/04 04:39:57;;;;;;;10.40;6.90;;;;;;;20.25;30.91;101472.27;102623;1328;73793;-83
2022/02/04 05:30:43;;;;;;;11.60;6.20;;;;;;;20.18;30.52;101495.69;103841;1317;74296;-88
2022/02/04 05:33:30;;;;;;;21.70;6.80;;;;;;;20.17;30.37;101496.31;103593;1319;77291;-82
2022/02/04 05:36:05;;;;;;;19.30;7.70;;;;;;;20.15;30.39;101499.63;103682;1317;61665;-81
2022/02/04 05:38:53;;;;;;;19.60;7.10;;;;;;;20.13;30.16;101498.51;103671;1314;61297;-81
2022/02/04 05:41:48;;;;;;;21.10;8.60;;;;;;;20.09;30.02;101500.88;103972;1313;72906;-81
2022/02/04 05:44:30;;;;;;;20.60;9.90;;;;;;;20.04;29.91;101503.63;103324;1319;76057;-85
2022/02/04 05:47:03;;;;;;;;;;;;;;;20.01;29.62;101508.83;103174;1320;61519;-82
2022/02/04 05:49:34;;;;;;;23.40;11.00;;;;;;;19.94;29.49;101515.95;103324;1319;61413;-81
2022/02/04 05:52:13;;;;;;;22.00;10.90;;;;;;;19.91;29.24;101519.55;103136;1319;73273;-78
2022/02/04 05:55:00;;;;;;;30.00;12.00;;;;;;;19.87;28.80;101517.63;103148;1319;75927;-81
2022/02/04 05:57:39;;;;;;;18.30;11.80;;;;;;;19.83;28.37;101519.27;102589;1314;61431;-81
2022/02/04 06:00:35;;;;;;;26.70;11.80;;;;;;;19.80;28.05;101519.42;104208;1313;61391;-80
2022/02/04 06:03:36;;;;;;;21.50;11.30;;;;;;;19.75;27.91;101525.39;103350;1317;73409;-81
2022/02/04 06:06:36;;;;;;;;;;;;;;;;;;;;;
2022/02/04 06:12:10;;;;;;;;;;;;;;;;;;;;;
2022/02/04 06:15:06;;;;;;;;;;;;;;;;;;;;;
2022/02/04 06:23:10;;;;;;;19.70;10.90;;;;;;;19.88;27.07;101523.31;102792;1322;60558;-80
2022/02/04 06:25:38;;;;;;;18.40;10.20;;;;;;;19.92;27.12;101526.98;102765;1323;61369;-81
2022/02/04 06:28:05;;;;;;;20.00;10.60;;;;;;;19.97;27.08;101523.52;103103;1319;73796;-80
2022/02/04 06:30:30;;;;;;;15.80;9.90;;;;;;;20.01;27.16;101517.91;103193;1319;61582;-83
2022/02/04 06:32:56;;;;;;;16.70;10.60;;;;;;;20.05;27.25;101519.15;103296;1319;61441;-80
2022/02/04 06:35:22;;;;;;;22.60;10.70;;;;;;;20.08;27.14;101518.77;103115;1319;60432;-81
2022/02/04 06:37:48;;;;;;;20.00;9.80;;;;;;;20.13;27.30;101521.23;103211;1319;59460;-80
2022/02/04 06:40:13;;;;;;;21.00;10.40;;;;;;;20.15;27.36;101518.94;103152;1319;61393;-82
2022/02/04 06:42:39;;;;;;;19.40;10.30;;;;;;;20.18;27.54;101512.89;103154;1319;60025;-83
2022/02/04 06:45:08;;;;;;;23.90;10.90;;;;;;;20.21;27.73;101508.45;102904;1320;61536;-81
2022/02/04 06:47:35;;;;;;;19.70;10.40;;;;;;;20.23;27.79;101509.92;103770;1314;72804;-81
2022/02/04 06:50:00;;;;;;;17.90;9.30;;;;;;;20.25;27.91;101512.11;103885;1313;73656;-83
2022/02/04 06:52:29;;;;;;;22.60;12.20;;;;;;;20.27;28.06;101515.62;103858;1313;62085;-80
2022/02/04 06:55:18;;;;;;;25.30;12.00;;;;;;;20.27;28.10;101519.71;104016;1308;61264;-81
2022/02/04 06:57:47;;;;;;;18.70;11.50;;;;;;;20.22;28.04;101520.34;104105;1311;72880;-83
2022/02/04 07:00:17;;;;;;;24.70;11.50;;;;;;;20.15;28.11;101521.25;104214;1309;74427;-80
2022/02/04 07:02:44;;;;;;;30.90;13.10;;;;;;;20.08;27.99;101520.74;104169;1309;61771;-80
2022/02/04 07:05:13;;;;;;;25.90;13.50;;;;;;;20.02;27.95;101528.75;104896;1309;60313;-81
2022/02/04 07:07:44;;;;;;;23.30;13.80;;;;;;;20.00;28.00;101527.27;104273;1308;72887;-81
2022/02/04 07:10:17;;;;;;;26.50;14.10;;;;;;;20.01;27.76;101527.42;104239;1311;75011;-81
2022/02/04 07:12:59;;;;;;;25.40;12.70;;;;;;;20.02;27.73;101528.24;104176;1309;60373;-81
2022/02/04 07:15:51;;;;;;;25.80;12.70;;;;;;;20.04;27.68;101521.52;104272;1309;61275;-80
2022/02/04 07:21:02;;;;;;;26.30;12.60;;;;;;;20.09;27.53;101517.50;104134;1310;75682;-84
2022/02/04 07:23:28;;;;;;;23.50;11.20;;;;;;;20.12;27.51;101518.94;104063;1311;61226;-80
2022/02/04 07:25:54;;;;;;;20.80;11.60;;;;;;;20.15;27.52;101520.56;104121;1311;61340;-81
2022/02/04 07:28:19;;;;;;;19.30;11.30;;;;;;;20.16;27.55;101512.98;104214;1311;61318;-81
2022/02/04 07:30:45;;;;;;;18.20;10.60;;;;;;;20.19;27.63;101510.13;104079;1311;61367;-81
2022/02/04 07:33:19;;;;;;;16.60;10.60;;;;;;;20.22;27.75;101508.04;104052;1312;61814;-81
2022/02/04 07:41:32;;;;;;;17.30;9.90;;;;;;;20.25;27.92;101509.24;103727;1313;73423;-83
2022/02/04 07:44:07;;;;;;;15.60;9.30;;;;;;;20.26;27.89;101506.88;103775;1314;61303;-81
2022/02/04 07:46:32;;;;;;;18.30;9.80;;;;;;;20.28;27.88;101506.98;104418;1312;61038;-79
2022/02/04 07:48:58;;;;;;;17.20;8.60;;;;;;;20.28;27.70;101505.16;103895;1313;62184;-80
2022/02/04 07:51:27;;;;;;;16.70;9.20;;;;;;;20.29;27.75;101502.29;103949;1313;61276;-81
2022/02/04 07:53:52;;;;;;;18.20;9.20;;;;;;;20.29;27.72;101503.11;103882;1314;61468;-83
2022/02/04 07:56:23;;;;;;;19.00;9.90;;;;;;;20.24;27.43;101498.43;103871;1314;59981;-80
2022/02/04 07:58:56;;;;;;;21.00;10.20;;;;;;;20.17;27.42;101495.98;103946;1314;73803;-82
2022/02/04 08:01:26;;;;;;;14.70;10.00;;;;;;;20.07;27.14;101496.70;103902;1313;75793;-81
2022/02/04 08:04:00;;;;;;;15.60;9.20;;;;;;;19.96;26.90;101496.41;104540;1314;61222;-80
2022/02/04 08:06:27;;;;;;;17.70;9.30;;;;;;;19.87;27.01;101500.86;103848;1314;61308;-83
2022/02/04 08:11:25;;;;;;;15.90;9.90;;;;;;;19.75;26.99;101508.04;104369;1314;59665;-82
2022/02/04 08:19:56;;;;;;;12.80;8.80;;;;;;;19.61;27.08;101506.14;103910;1305;72945;-82
2022/02/04 08:25:13;;;;;;;15.20;9.50;;;;;;;19.55;27.13;101501.46;104507;1305;61108;-81
2022/02/04 08:28:27;;;;;;;;;;;;;;;;;;;;;
2022/02/04 08:36:18;;;;;;;15.50;7.70;;;;;;;19.67;26.99;101487.59;104283;1306;61106;-83
2022/02/04 08:50:25;;;;;;;;;;;;;;;;;;;;;
2022/02/04 08:55:36;;;;;;;17.80;9.10;;;;;;;19.96;27.41;101482.11;103281;1320;76021;-82
2022/02/04 08:58:25;;;;;;;15.70;9.30;;;;;;;19.93;27.35;101481.92;103248;1320;61590;-83
2022/02/04 09:06:20;;;;;;;16.00;8.90;;;;;;;19.77;27.41;101477.93;103137;1319;75818;-81
2022/02/04 09:08:53;;;;;;;21.00;9.70;;;;;;;19.72;27.35;101476.60;103336;1318;61243;-81
2022/02/04 09:11:46;;;;;;;17.20;9.20;;;;;;;19.68;27.35;101471.11;103050;1319;61719;-81
2022/02/04 09:17:26;;;;;;;17.30;9.60;;;;;;;19.62;27.29;101462.34;103654;1314;75383;-81
2022/02/04 09:24:52;;;;;;;19.00;8.30;;;;;;;19.70;27.13;101458.14;104009;1311;74196;-81
2022/02/04 09:27:18;;;;;;;21.90;9.00;;;;;;;19.74;27.76;101454.56;103971;1311;74506;-81
2022/02/04 09:29:44;;;;;;;22.10;9.10;;;;;;;19.76;28.31;101447.09;103781;1311;61283;-81
2022/02/04 09:32:10;;;;;;;20.40;9.90;;;;;;;19.77;28.54;101439.73;104021;1305;61366;-81
2022/02/04 09:34:36;;;;;;;20.70;9.30;;;;;;;19.76;28.70;101437.46;104509;1305;59995;-83
2022/02/04 09:37:01;;;;;;;14.90;9.30;;;;;;;19.75;28.70;101436.64;104315;1308;60143;-82
2022/02/04 09:39:28;;;;;;;17.00;9.70;;;;;;;19.72;28.24;101438.05;104246;1308;61544;-81
2022/02/04 09:41:54;;;;;;;16.50;9.00;;;;;;;19.70;28.19;101431.20;104051;1311;61191;-82
2022/02/04 09:44:20;;;;;;;12.30;8.50;;;;;;;19.67;27.68;101430.47;104154;1310;62750;-82
2022/02/04 09:46:46;;;;;;;14.20;8.80;;;;;;;19.65;27.65;101420.55;103992;1311;61433;-82
2022/02/04 09:49:25;;;;;;;12.20;8.00;;;;;;;19.63;27.31;101428.17;103878;1311;74942;-81
2022/02/04 10:06:49;;;;;;;18.10;8.10;;;;;;;19.46;27.54;101414.48;103977;1311;61287;-82
2022/02/04 10:08:55;;;;;;;13.60;7.70;;;;;;;19.43;27.40;101411.92;104155;1308;74031;-81
2022/02/04 10:14:35;;;;;;;18.00;7.10;;;;;;;19.40;27.32;101404.11;103933;1313;62072;-80
2022/02/04 10:17:27;;;;;;;21.00;7.10;;;;;;;19.39;27.56;101396.05;104499;1313;357027;-80
2022/02/04 10:19:57;;;;;;;15.10;6.70;;;;;;;19.40;27.85;101389.24;104884;1312;73759;-81
2022/02/04 10:22:27;;;;;;;;;;;;;;;19.42;27.74;101383.97;104726;1314;75029;-79
2022/02/04 10:24:55;;;;;;;11.00;6.40;;;;;;;19.43;27.55;101379.84;104084;1313;63387;-81
2022/02/04 10:27:21;;;;;;;17.00;7.20;;;;;;;19.49;27.52;101378.94;103886;1313;61821;-80
2022/02/04 10:29:54;;;;;;;16.80;6.30;;;;;;;19.53;27.47;101379.11;103886;1314;73139;-81
2022/02/04 10:32:30;;;;;;;11.50;7.00;;;;;;;19.54;27.39;101376.67;104015;1314;74681;-81
2022/02/04 10:35:37;;;;;;;14.00;6.50;;;;;;;19.55;27.32;101375.06;104203;1312;61457;-82
2022/02/04 10:40:47;;;;;;;12.50;6.00;;;;;;;19.58;27.21;101370.43;103792;1317;73005;-81
2022/02/04 10:43:36;;;;;;;13.40;6.50;;;;;;;19.59;26.98;101365.73;103693;1317;74844;-82
2022/02/04 10:46:20;;;;;;;12.60;6.60;;;;;;;19.60;26.95;101362.27;103587;1317;61250;-81
2022/02/04 10:49:08;;;;;;;11.50;6.60;;;;;;;19.62;26.75;101361.96;103535;1317;61623;-81
2022/02/04 10:51:54;;;;;;;10.40;6.50;;;;;;;19.65;26.81;101358.99;103403;1311;73566;-81
2022/02/04 10:57:53;;;;;;;13.80;5.60;;;;;;;19.64;26.39;101351.71;103927;1311;60653;-82
2022/02/04 11:00:26;;;;;;;11.90;6.50;;;;;;;19.48;26.11;101344.03;104118;1311;61329;-83
2022/02/04 11:02:57;;;;;;;13.30;6.10;;;;;;;19.46;26.20;101341.29;104489;1311;72703;-83
2022/02/04 11:11:11;;;;;;;9.10;5.50;;;;;;;19.35;25.74;101331.04;104327;1313;59563;-83
2022/02/04 11:33:46;;;;;;;9.70;5.50;;;;;;;19.37;25.45;101307.66;104406;1305;61302;-81
2022/02/04 11:36:20;;;;;;;14.80;6.40;;;;;;;19.36;25.71;101305.56;104371;1305;72716;-80
2022/02/04 11:53:55;;;;;;;11.00;5.80;;;;;;;19.30;25.94;101285.26;104958;1305;59929;-81
2022/02/04 11:56:19;;;;;;;9.00;5.20;;;;;;;19.21;25.67;101277.88;105154;1305;61499;-81
2022/02/04 11:58:58;;;;;;;13.10;5.60;;;;;;;19.18;25.38;101273.73;105121;1305;59237;-81
2022/02/04 12:01:24;;;;;;;12.20;6.00;;;;;;;19.14;25.19;101270.08;105148;1306;75941;-81
2022/02/04 12:03:49;;;;;;;10.90;5.60;;;;;;;19.09;25.14;101264.62;105313;1305;59149;-81
2022/02/04 12:06:28;;;;;;;13.70;5.80;;;;;;;19.02;25.01;101260.72;105220;1306;59310;-81
2022/02/04 12:09:11;;;;;;;15.20;5.40;;;;;;;18.94;24.78;101262.58;105166;1305;73922;-80
2022/02/04 12:11:40;;;;;;;14.20;5.60;;;;;;;18.98;24.89;101264.90;104947;1305;75777;-81
2022/02/04 12:14:16;;;;;;;9.80;5.40;;;;;;;19.03;25.06;101261.59;104464;1307;61166;-81
2022/02/04 12:17:07;;;;;;;18.70;5.70;;;;;;;19.08;25.13;101253.98;104609;1305;61295;-80
2022/02/04 12:19:41;;;;;;;11.00;5.60;;;;;;;19.12;24.98;101252.50;104299;1305;73808;-81
2022/02/04 12:22:08;;;;;;;12.80;4.90;;;;;;;19.15;24.88;101251.83;104537;1305;75727;-80
2022/02/04 12:24:45;;;;;;;10.40;5.20;;;;;;;19.17;24.84;101252.05;104525;1305;61840;-81
2022/02/04 12:27:52;;;;;;;8.60;5.10;;;;;;;19.20;24.76;101248.83;104340;1305;61543;-80
2022/02/04 12:30:36;;;;;;;10.30;4.80;;;;;;;19.22;24.85;101255.70;103918;1311;73842;-83
2022/02/04 12:33:22;;;;;;;17.10;4.80;;;;;;;19.25;24.86;101255.34;103821;1312;74919;-82
2022/02/04 12:35:59;;;;;;;9.00;5.20;;;;;;;19.28;24.91;101248.75;103867;1311;61335;-80
2022/02/04 12:38:35;;;;;;;8.30;5.20;;;;;;;19.30;24.87;101247.93;103928;1311;60775;-81
2022/02/04 12:41:20;;;;;;;13.80;5.50;;;;;;;19.32;24.79;101243.20;103901;1311;73445;-81
2022/02/04 12:44:15;;;;;;;9.90;4.90;;;;;;;19.31;24.91;101241.44;103826;1311;76575;-79
2022/02/04 12:46:45;;;;;;;9.00;5.00;;;;;;;19.34;25.11;101236.98;103927;1311;61341;-79
2022/02/04 12:49:22;;;;;;;10.90;5.10;;;;;;;19.36;25.10;101234.91;104121;1311;60977;-80
2022/02/04 12:54:51;;;;;;;10.40;4.60;;;;;;;19.38;25.00;101226.27;103891;1311;75389;-79
2022/02/04 13:00:19;;;;;;;9.20;4.80;;;;;;;19.35;25.00;101215.54;104086;1311;61192;-79
2022/02/04 13:11:03;;;;;;;12.00;5.60;;;;;;;19.50;25.11;101208.44;104938;1313;59746;-78
2022/02/04 13:13:45;;;;;;;9.70;5.00;;;;;;;19.54;25.19;101201.42;104006;1313;72958;-79
2022/02/04 13:16:27;;;;;;;10.50;4.80;;;;;;;19.58;25.29;101204.58;103792;1313;75860;-80
2022/02/04 13:19:07;;;;;;;7.40;4.20;;;;;;;19.62;25.32;101196.80;104685;1313;61376;-79
2022/02/04 13:22:14;;;;;;;;;;;;;;;;;;;;;
2022/02/04 13:24:41;;;;;;;9.70;4.50;;;;;;;19.68;25.49;101193.25;104033;1313;72789;-82
2022/02/04 13:27:20;;;;;;;10.90;4.50;;;;;;;19.70;25.62;101187.39;103798;1313;73633;-79
2022/02/04 13:29:46;;;;;;;13.10;4.80;;;;;;;19.72;25.67;101182.81;104467;1313;60336;-79
2022/02/04 13:32:51;;;;;;;12.00;4.40;;;;;;;19.75;25.80;101183.02;103881;1313;61126;-78
2022/02/04 13:35:36;;;;;;;9.20;4.20;;;;;;;19.77;26.08;101183.45;103932;1313;73964;-80
2022/02/04 13:38:30;;;;;;;8.40;4.40;;;;;;;19.79;26.19;101180.48;103896;1313;74897;-80
2022/02/04 13:41:30;;;;;;;7.40;4.20;;;;;;;19.81;26.24;101177.15;103800;1313;61279;-78
2022/02/04 13:47:29;;;;;;;9.80;4.70;;;;;;;19.85;26.54;101180.66;104393;1305;71597;-80
2022/02/04 13:53:47;;;;;;;11.20;4.90;;;;;;;19.88;26.64;101182.63;104365;1305;61020;-85
2022/02/04 13:56:44;;;;;;;10.90;4.40;;;;;;;19.88;26.95;101180.49;104028;1313;61232;-77
2022/02/04 13:59:40;;;;;;;8.60;4.10;;;;;;;19.89;26.96;101177.77;104266;1313;74214;-78
2022/02/04 14:02:38;;;;;;;9.40;4.50;;;;;;;19.89;26.79;101180.79;104174;1313;75744;-82
2022/02/04 14:05:04;;;;;;;5.80;3.70;;;;;;;19.89;26.89;101175.60;105086;1313;61527;-79
2022/02/04 14:07:41;;;;;;;7.50;4.00;;;;;;;19.90;26.80;101167.84;104444;1312;61413;-81
2022/02/04 14:10:28;;;;;;;9.50;4.10;;;;;;;19.91;26.87;101169.03;103979;1313;73161;-84
2022/02/04 14:13:13;;;;;;;8.30;4.20;;;;;;;19.92;26.89;101161.83;103935;1312;74915;-80
2022/02/04 14:15:40;;;;;;;9.40;4.30;;;;;;;19.93;26.96;101160.20;104684;1312;61784;-80
2022/02/04 14:18:26;;;;;;;8.60;4.40;;;;;;;19.94;27.15;101156.54;103977;1313;61739;-82
2022/02/04 14:20:55;;;;;;;6.90;4.10;;;;;;;19.95;27.04;101153.48;104075;1313;72740;-81
2022/02/04 14:23:27;;;;;;;7.90;3.90;;;;;;;19.96;27.25;101152.16;104050;1313;74658;-79
2022/02/04 14:26:22;;;;;;;10.00;4.10;;;;;;;19.96;27.08;101151.61;104167;1313;61195;-83
2022/02/04 14:29:07;;;;;;;6.70;3.90;;;;;;;19.97;27.09;101149.42;104011;1313;61277;-81
2022/02/04 14:31:47;;;;;;;8.10;4.10;;;;;;;19.97;27.21;101147.46;103956;1313;73490;-85
2022/02/04 14:35:01;;;;;;;7.30;3.80;;;;;;;19.98;27.24;101146.16;103955;1313;73591;-80
2022/02/04 14:51:17;;;;;;;6.70;3.80;;;;;;;20.00;27.53;101133.34;103303;1322;61460;-86
2022/02/04 14:54:03;;;;;;;5.80;3.70;;;;;;;20.00;27.60;101134.05;103222;1321;61506;-80
2022/02/04 15:06:39;;;;;;;8.90;3.70;;;;;;;20.01;27.74;101158.63;102515;1330;62096;-78
2022/02/04 15:09:53;;;;;;;8.20;3.50;;;;;;;20.02;27.82;101158.05;101992;1337;73972;-83
2022/02/04 15:12:47;;;;;;;7.90;3.80;;;;;;;20.02;27.80;101158.95;102273;1331;74793;-85
2022/02/04 15:15:46;;;;;;;8.40;3.70;;;;;;;20.03;27.83;101161.56;101914;1337;61362;-82
2022/02/04 15:18:34;;;;;;;6.70;3.70;;;;;;;20.03;27.91;101160.66;101840;1337;62181;-83
2022/02/04 15:21:41;;;;;;;7.30;3.40;;;;;;;20.03;27.93;101155.81;101877;1337;73121;-82
2022/02/04 15:24:31;;;;;;;7.20;3.60;;;;;;;20.04;27.95;101149.34;101838;1340;75824;-85
2022/02/04 15:27:44;;;;;;;5.80;3.40;;;;;;;20.04;28.03;101146.13;101654;1345;62175;-79
2022/02/04 15:30:43;;;;;;;5.60;3.20;;;;;;;20.04;28.06;101147.55;101709;1345;61491;-82
2022/02/04 15:33:51;;;;;;;9.20;3.70;;;;;;;20.05;28.10;101148.73;101671;1345;74281;-83
2022/02/04 15:39:34;;;;;;;7.40;4.00;;;;;;;20.06;28.13;101147.98;100383;1355;62006;-85
2022/02/04 15:42:33;;;;;;;;;;;;;;;;;;;;;
2022/02/04 15:46:00;;;;;;;6.30;3.60;;;;;;;20.07;28.16;101147.02;101036;1355;72965;-82
2022/02/04 15:48:25;;;;;;;5.70;3.70;;;;;;;20.06;28.24;101148.12;101543;1348;75808;-78
2022/02/04 15:57:34;;;;;;;6.70;3.70;;;;;;;20.07;28.35;101147.16;101472;1347;73108;-85
2022/02/04 16:03:40;;;;;;;7.30;3.90;;;;;;;20.08;28.29;101153.20;101489;1346;61502;-79
2022/02/04 16:06:41;;;;;;;;;;;;;;;;;;;;;
2022/02/04 16:09:21;;;;;;;6.80;3.50;;;;;;;20.09;28.48;101150.09;101669;1345;74057;-83
2022/02/04 16:12:21;;;;;;;7.70;3.90;;;;;;;20.09;28.48;101146.87;101663;1345;75936;-81
2022/02/04 16:18:17;;;;;;;5.60;3.80;;;;;;;20.10;28.49;101140.56;101931;1336;61588;-83
2022/02/04 16:21:00;;;;;;;5.50;3.60;;;;;;;20.10;28.53;101135.20;101933;1336;73924;-77
2022/02/04 16:30:26;;;;;;;6.30;3.80;;;;;;;20.09;28.63;101123.11;101897;1336;61516;-83
2022/02/04 16:33:24;;;;;;;7.20;4.00;;;;;;;20.09;28.60;101127.06;101986;1329;73999;-82
2022/02/04 16:36:45;;;;;;;8.40;4.20;;;;;;;20.09;28.66;101120.41;102652;1328;74921;-84
2022/02/04 16:39:27;;;;;;;7.40;4.40;;;;;;;20.09;28.71;101119.70;102668;1328;61236;-83
2022/02/04 16:42:45;;;;;;;7.50;4.00;;;;;;;20.10;28.71;101115.92;102247;1332;61489;-80
2022/02/04 16:45:17;;;;;;;6.00;4.00;;;;;;;20.10;28.68;101115.39;102273;1332;73943;-82
2022/02/04 16:48:14;;;;;;;6.90;4.00;;;;;;;20.10;28.79;101113.22;102337;1332;76571;-80
2022/02/04 16:51:05;;;;;;;8.10;4.30;;;;;;;20.10;28.73;101116.42;102360;1332;61827;-84
2022/02/04 16:53:58;;;;;;;9.50;4.60;;;;;;;20.10;28.77;101115.91;102346;1332;61216;-82
2022/02/04 16:57:04;;;;;;;7.80;4.40;;;;;;;20.10;28.83;101113.78;102380;1331;71523;-83
2022/02/04 17:00:02;;;;;;;9.50;4.80;;;;;;;20.10;28.82;101114.30;101957;1335;73566;-84
2022/02/04 17:03:11;;;;;;;8.50;4.50;;;;;;;20.10;28.83;101116.27;102036;1336;61252;-83
2022/02/04 17:06:01;;;;;;;8.00;4.90;;;;;;;20.10;28.91;101113.80;102104;1335;61275;-85
2022/02/04 17:08:35;;;;;;;7.70;4.60;;;;;;;20.10;28.86;101115.89;102070;1335;74046;-84
2022/02/04 17:11:33;;;;;;;7.50;4.60;;;;;;;20.11;28.91;101112.65;102012;1335;75724;-85
2022/02/04 17:14:29;;;;;;;10.20;4.90;;;;;;;20.11;28.80;101110.87;102024;1336;61396;-85
2022/02/04 17:17:43;;;;;;;;;;;;;;;;;;;;;
2022/02/04 17:20:14;;;;;;;7.90;5.00;;;;;;;20.10;28.90;101103.20;102385;1331;73872;-84
2022/02/04 17:23:30;;;;;;;;;;;;;;;;;;;;;
2022/02/04 17:26:17;;;;;;;10.00;5.00;;;;;;;20.10;29.01;101110.36;102516;1331;61505;-78
2022/02/04 17:29:09;;;;;;;8.50;5.50;;;;;;;20.11;28.94;101113.15;102505;1331;62352;-85
2022/02/04 17:32:00;;;;;;;9.70;5.10;;;;;;;20.11;29.02;101114.42;102478;1331;72761;-88
2022/02/04 17:34:42;;;;;;;10.10;5.80;;;;;;;20.10;29.07;101113.39;102614;1327;76093;-85
2022/02/04 17:37:23;;;;;;;9.60;5.50;;;;;;;20.11;29.09;101114.42;102866;1322;61118;-82
2022/02/04 17:40:31;;;;;;;9.70;5.70;;;;;;;20.11;29.13;101112.45;103022;1322;61352;-85
2022/02/04 17:43:26;;;;;;;11.20;5.60;;;;;;;20.11;29.07;101111.56;103128;1322;72718;-81
2022/02/04 17:46:12;;;;;;;11.50;5.60;;;;;;;20.11;29.08;101114.25;102570;1329;73776;-79
2022/02/04 17:49:20;;;;;;;12.10;5.50;;;;;;;20.11;29.16;101114.61;102520;1329;61343;-86
2022/02/04 17:52:20;;;;;;;8.90;5.60;;;;;;;20.11;29.18;101121.96;102378;1330;61361;-82
2022/02/04 17:55:27;;;;;;;10.10;5.50;;;;;;;20.11;29.16;101118.35;102479;1330;72775;-84
2022/02/04 18:02:02;;;;;;;9.90;5.70;;;;;;;20.11;29.29;101113.56;102259;1334;61485;-82
2022/02/04 18:08:04;;;;;;;12.60;6.40;;;;;;;20.11;29.29;101120.31;102444;1331;74268;-83
2022/02/04 18:11:04;;;;;;;11.00;6.80;;;;;;;20.11;29.23;101125.48;102289;1332;74923;-88
2022/02/04 18:13:53;;;;;;;11.10;6.70;;;;;;;20.12;29.24;101124.75;102233;1332;61775;-89
2022/02/04 18:16:36;;;;;;;12.90;6.90;;;;;;;20.12;29.27;101122.61;102368;1332;62796;-83
2022/02/04 18:19:40;;;;;;;;;;;;;;;;;;;;;
2022/02/04 18:22:35;;;;;;;10.40;7.00;;;;;;;20.11;29.31;101129.77;102327;1332;76172;-85
2022/02/04 18:25:14;;;;;;;10.80;6.80;;;;;;;20.11;29.28;101131.39;102695;1328;61345;-82
2022/02/04 18:28:06;;;;;;;10.60;6.80;;;;;;;20.12;29.28;101131.39;102593;1328;61710;-80
2022/02/04 18:30:59;;;;;;;10.50;6.60;;;;;;;20.12;29.42;101127.98;102522;1326;71915;-80
2022/02/04 18:33:28;;;;;;;9.60;6.50;;;;;;;20.13;29.35;101126.46;102430;1326;74186;-86